Main page
METAR-TAF:

METAR-TAF

Airports :

London-Southend, England

London Southend Airport

latitude: 51-34N, longitude: 000-42E, elevation: 15 m

Current weather observation

The report was made 1 hour and 24 minutes ago, at 19:20 UTC
Wind 15 kt from the Southwest
Temperature 20°C
Humidity 60%
Pressure 1015 hPa
Visibility 10 km or more
Scattered clouds at a height of 4200 ft

METAR: EGMC 231920Z 23015KT 9999 SCT042 20/12 Q1015

Time: 21:44 (20:44 UTC)

Forecast

The report was made 46 minutes ago, at 19:58 UTC
Forecast valid from 23 at 21 UTC to 24 at 06 UTC
Wind 14 kt from the West/Southwest
Visibility 10 km or more
Scattered clouds at a height of 3500 ft
Becoming
from 24 at 04 UTC to 24 at 06 UTC
Broken clouds at a height of 1200 ft
Probability 40% :
Temporary
from 24 at 04 UTC to 24 at 06 UTC
Visibility: 6000 m
Broken clouds at a height of 900 ft
light rain, drizzle

TAF: EGMC 231958Z 2321/2406 25014KT 9999 SCT035 BECMG 2404/2406 BKN012 PROB40 TEMPO 2404/2406 6000 -RADZ BKN009

Weather observations and forecasts of more than 4000 airports (METAR and TAF reports).

The available stations are represented by yellow and red dots on the map.

Hover mouse over dot to see the name of the station.

Then click to see weather observations and forecasts.

To change the map : click on the green buttons with a black cross to zoom in, on the green button with a dash to zoom out, or on the green arrows for adjacent maps.


METAR-TAF: